sensor_id;sensor_type;location;lat;lon;timestamp;pressure;altitude;pressure_sealevel;temperature;humidity
32456;BME280;18912;43.270;27.942;2023-03-03T00:02:12;98452.09;;;11.84;56.08
32456;BME280;18912;43.270;27.942;2023-03-03T00:04:38;98447.06;;;11.88;56.05
32456;BME280;18912;43.270;27.942;2023-03-03T00:07:04;98446.69;;;11.91;55.75
32456;BME280;18912;43.270;27.942;2023-03-03T00:09:29;98451.25;;;11.97;55.75
32456;BME280;18912;43.270;27.942;2023-03-03T00:11:56;98439.16;;;11.93;56.02
32456;BME280;18912;43.270;27.942;2023-03-03T00:14:28;98432.09;;;11.92;55.68
32456;BME280;18912;43.270;27.942;2023-03-03T00:16:55;98434.16;;;11.90;55.90
32456;BME280;18912;43.270;27.942;2023-03-03T00:19:22;98435.22;;;11.89;56.11
32456;BME280;18912;43.270;27.942;2023-03-03T00:21:49;98430.44;;;11.91;55.81
32456;BME280;18912;43.270;27.942;2023-03-03T00:24:24;98435.41;;;11.94;55.95
32456;BME280;18912;43.270;27.942;2023-03-03T00:26:55;98433.75;;;11.99;55.82
32456;BME280;18912;43.270;27.942;2023-03-03T00:29:39;98407.09;;;11.96;55.71
32456;BME280;18912;43.270;27.942;2023-03-03T00:32:19;98415.00;;;11.98;55.29
32456;BME280;18912;43.270;27.942;2023-03-03T00:34:45;98425.41;;;12.01;55.43
32456;BME280;18912;43.270;27.942;2023-03-03T00:37:22;98417.06;;;12.02;55.60
32456;BME280;18912;43.270;27.942;2023-03-03T00:39:49;98408.31;;;11.87;55.60
32456;BME280;18912;43.270;27.942;2023-03-03T00:42:16;98417.09;;;11.83;55.81
32456;BME280;18912;43.270;27.942;2023-03-03T00:44:56;98405.81;;;11.86;55.75
32456;BME280;18912;43.270;27.942;2023-03-03T00:49:54;98406.44;;;11.88;55.69
32456;BME280;18912;43.270;27.942;2023-03-03T00:52:20;98396.66;;;11.93;55.71
32456;BME280;18912;43.270;27.942;2023-03-03T00:54:48;98399.16;;;11.88;55.63
32456;BME280;18912;43.270;27.942;2023-03-03T00:57:14;98399.16;;;11.95;55.78
32456;BME280;18912;43.270;27.942;2023-03-03T00:59:39;98392.06;;;11.87;55.56
32456;BME280;18912;43.270;27.942;2023-03-03T01:02:05;98393.09;;;11.93;55.65
32456;BME280;18912;43.270;27.942;2023-03-03T01:04:31;98393.72;;;11.82;55.51
32456;BME280;18912;43.270;27.942;2023-03-03T01:06:57;98391.03;;;11.82;55.61
32456;BME280;18912;43.270;27.942;2023-03-03T01:09:22;98392.91;;;11.88;55.53
32456;BME280;18912;43.270;27.942;2023-03-03T01:11:48;98384.78;;;11.88;55.56
32456;BME280;18912;43.270;27.942;2023-03-03T01:14:14;98383.75;;;12.02;55.52
32456;BME280;18912;43.270;27.942;2023-03-03T01:16:40;98380.19;;;11.95;55.34
32456;BME280;18912;43.270;27.942;2023-03-03T01:19:06;98369.78;;;11.98;55.33
32456;BME280;18912;43.270;27.942;2023-03-03T01:21:32;98368.97;;;11.85;55.29
32456;BME280;18912;43.270;27.942;2023-03-03T01:23:57;98372.47;;;11.92;55.28
32456;BME280;18912;43.270;27.942;2023-03-03T01:26:23;98363.72;;;11.90;55.38
32456;BME280;18912;43.270;27.942;2023-03-03T01:28:48;98360.81;;;11.85;55.32
32456;BME280;18912;43.270;27.942;2023-03-03T01:31:13;98362.09;;;11.89;55.12
32456;BME280;18912;43.270;27.942;2023-03-03T01:33:39;98367.91;;;11.73;55.73
32456;BME280;18912;43.270;27.942;2023-03-03T01:36:05;98354.56;;;11.78;55.25
32456;BME280;18912;43.270;27.942;2023-03-03T01:38:31;98358.75;;;11.80;55.22
32456;BME280;18912;43.270;27.942;2023-03-03T01:40:59;98351.41;;;11.61;55.47
32456;BME280;18912;43.270;27.942;2023-03-03T01:43:29;98351.03;;;11.77;55.39
32456;BME280;18912;43.270;27.942;2023-03-03T01:48:27;98348.09;;;11.72;55.43
32456;BME280;18912;43.270;27.942;2023-03-03T01:50:58;98349.38;;;11.83;55.06
32456;BME280;18912;43.270;27.942;2023-03-03T01:53:46;98346.22;;;11.86;54.96
32456;BME280;18912;43.270;27.942;2023-03-03T01:56:12;98339.56;;;11.82;54.88
32456;BME280;18912;43.270;27.942;2023-03-03T01:58:44;98337.50;;;11.71;55.08
32456;BME280;18912;43.270;27.942;2023-03-03T02:01:15;98338.53;;;11.76;54.71
32456;BME280;18912;43.270;27.942;2023-03-03T02:03:43;98334.78;;;11.77;55.02
32456;BME280;18912;43.270;27.942;2023-03-03T02:06:12;98333.53;;;11.73;54.96
32456;BME280;18912;43.270;27.942;2023-03-03T02:08:45;98338.09;;;11.86;54.79
32456;BME280;18912;43.270;27.942;2023-03-03T02:11:14;98339.56;;;11.88;54.69
32456;BME280;18912;43.270;27.942;2023-03-03T02:13:40;98334.16;;;11.88;54.47
32456;BME280;18912;43.270;27.942;2023-03-03T02:16:06;98341.03;;;11.91;54.56
32456;BME280;18912;43.270;27.942;2023-03-03T02:18:32;98340.78;;;11.99;54.33
32456;BME280;18912;43.270;27.942;2023-03-03T02:21:01;98349.31;;;12.02;54.20
32456;BME280;18912;43.270;27.942;2023-03-03T02:23:47;98342.25;;;12.01;54.21
32456;BME280;18912;43.270;27.942;2023-03-03T02:26:17;98355.19;;;11.99;54.34
32456;BME280;18912;43.270;27.942;2023-03-03T02:28:47;98342.50;;;11.87;54.45
32456;BME280;18912;43.270;27.942;2023-03-03T02:31:15;98340.81;;;11.86;54.40
32456;BME280;18912;43.270;27.942;2023-03-03T02:33:47;98334.56;;;11.92;54.29
32456;BME280;18912;43.270;27.942;2023-03-03T02:36:26;98331.66;;;11.80;54.31
32456;BME280;18912;43.270;27.942;2023-03-03T02:39:16;98323.13;;;11.83;54.34
32456;BME280;18912;43.270;27.942;2023-03-03T02:44:18;98334.97;;;11.95;53.84
32456;BME280;18912;43.270;27.942;2023-03-03T02:46:46;98341.63;;;11.99;53.88
32456;BME280;18912;43.270;27.942;2023-03-03T02:49:17;98346.03;;;12.00;53.95
32456;BME280;18912;43.270;27.942;2023-03-03T02:51:43;98336.84;;;11.95;53.96
32456;BME280;18912;43.270;27.942;2023-03-03T02:54:11;98331.22;;;11.90;54.02
32456;BME280;18912;43.270;27.942;2023-03-03T02:56:37;98344.56;;;11.85;54.14
32456;BME280;18912;43.270;27.942;2023-03-03T02:59:03;98333.97;;;11.83;54.32
32456;BME280;18912;43.270;27.942;2023-03-03T03:01:29;98333.50;;;11.93;54.14
32456;BME280;18912;43.270;27.942;2023-03-03T03:03:57;98343.75;;;11.84;54.34
32456;BME280;18912;43.270;27.942;2023-03-03T03:06:23;98339.56;;;11.62;54.81
32456;BME280;18912;43.270;27.942;2023-03-03T03:08:48;98330.81;;;11.67;54.87
32456;BME280;18912;43.270;27.942;2023-03-03T03:11:14;98322.91;;;11.78;54.52
32456;BME280;18912;43.270;27.942;2023-03-03T03:13:40;98325.63;;;11.78;54.64
32456;BME280;18912;43.270;27.942;2023-03-03T03:16:05;98317.91;;;11.75;54.84
32456;BME280;18912;43.270;27.942;2023-03-03T03:18:31;98313.09;;;11.84;54.56
32456;BME280;18912;43.270;27.942;2023-03-03T03:21:03;98314.34;;;11.88;54.33
32456;BME280;18912;43.270;27.942;2023-03-03T03:23:29;98320.59;;;11.95;54.24
32456;BME280;18912;43.270;27.942;2023-03-03T03:25:54;98320.41;;;11.64;54.77
32456;BME280;18912;43.270;27.942;2023-03-03T03:28:20;98331.63;;;11.41;55.45
32456;BME280;18912;43.270;27.942;2023-03-03T03:30:45;98319.97;;;11.60;55.35
32456;BME280;18912;43.270;27.942;2023-03-03T03:33:11;98307.91;;;11.76;54.83
32456;BME280;18912;43.270;27.942;2023-03-03T03:35:37;98321.03;;;11.79;54.62
32456;BME280;18912;43.270;27.942;2023-03-03T03:38:02;98315.44;;;11.74;54.85
32456;BME280;18912;43.270;27.942;2023-03-03T03:40:28;98307.50;;;11.79;54.68
32456;BME280;18912;43.270;27.942;2023-03-03T03:42:54;98309.38;;;11.78;54.80
32456;BME280;18912;43.270;27.942;2023-03-03T03:45:20;98305.81;;;11.78;54.87
32456;BME280;18912;43.270;27.942;2023-03-03T03:47:45;98306.25;;;11.75;54.85
32456;BME280;18912;43.270;27.942;2023-03-03T03:50:12;98304.16;;;11.83;54.82
32456;BME280;18912;43.270;27.942;2023-03-03T03:52:37;98310.41;;;11.84;54.59
32456;BME280;18912;43.270;27.942;2023-03-03T03:55:03;98307.09;;;11.75;54.67
32456;BME280;18912;43.270;27.942;2023-03-03T03:57:29;98289.16;;;11.55;54.71
32456;BME280;18912;43.270;27.942;2023-03-03T03:59:55;98304.59;;;11.67;54.81
32456;BME280;18912;43.270;27.942;2023-03-03T04:02:20;98312.09;;;11.72;54.98
32456;BME280;18912;43.270;27.942;2023-03-03T04:04:46;98297.53;;;11.66;55.05
32456;BME280;18912;43.270;27.942;2023-03-03T04:07:11;98304.16;;;11.64;55.18
32456;BME280;18912;43.270;27.942;2023-03-03T04:09:37;98294.38;;;11.69;55.22
32456;BME280;18912;43.270;27.942;2023-03-03T04:12:02;98300.41;;;11.78;54.88
32456;BME280;18912;43.270;27.942;2023-03-03T04:14:28;98297.06;;;11.76;54.93
32456;BME280;18912;43.270;27.942;2023-03-03T04:16:53;98298.53;;;11.78;54.79
32456;BME280;18912;43.270;27.942;2023-03-03T04:19:19;98293.13;;;11.78;54.79
32456;BME280;18912;43.270;27.942;2023-03-03T04:21:44;98298.34;;;11.73;54.93
32456;BME280;18912;43.270;27.942;2023-03-03T04:24:10;98288.97;;;11.69;54.88
32456;BME280;18912;43.270;27.942;2023-03-03T04:26:36;98286.25;;;11.69;54.82
32456;BME280;18912;43.270;27.942;2023-03-03T04:29:01;98283.31;;;11.64;54.83
32456;BME280;18912;43.270;27.942;2023-03-03T04:31:27;98291.44;;;11.64;54.78
32456;BME280;18912;43.270;27.942;2023-03-03T04:33:52;98291.88;;;11.68;54.95
32456;BME280;18912;43.270;27.942;2023-03-03T04:36:19;98283.75;;;11.68;55.00
32456;BME280;18912;43.270;27.942;2023-03-03T04:38:44;98295.00;;;11.71;54.76
32456;BME280;18912;43.270;27.942;2023-03-03T04:41:09;98287.91;;;11.64;54.97
32456;BME280;18912;43.270;27.942;2023-03-03T04:43:35;98282.72;;;11.69;54.63
32456;BME280;18912;43.270;27.942;2023-03-03T04:46:01;98289.19;;;11.68;54.79
32456;BME280;18912;43.270;27.942;2023-03-03T04:48:27;98290.44;;;11.72;54.81
32456;BME280;18912;43.270;27.942;2023-03-03T04:50:53;98288.94;;;11.76;54.85
32456;BME280;18912;43.270;27.942;2023-03-03T04:53:18;98286.47;;;11.68;54.78
32456;BME280;18912;43.270;27.942;2023-03-03T04:55:44;98291.06;;;11.74;54.43
32456;BME280;18912;43.270;27.942;2023-03-03T04:58:09;98294.34;;;11.76;54.49
32456;BME280;18912;43.270;27.942;2023-03-03T05:00:35;98294.78;;;11.79;54.49
32456;BME280;18912;43.270;27.942;2023-03-03T05:03:01;98288.94;;;11.82;54.54
32456;BME280;18912;43.270;27.942;2023-03-03T05:05:27;98289.16;;;11.81;54.47
32456;BME280;18912;43.270;27.942;2023-03-03T05:07:52;98298.31;;;11.80;54.49
32456;BME280;18912;43.270;27.942;2023-03-03T05:10:18;98300.84;;;11.81;54.46
32456;BME280;18912;43.270;27.942;2023-03-03T05:12:44;98298.94;;;11.82;54.60
32456;BME280;18912;43.270;27.942;2023-03-03T05:15:09;98300.00;;;11.81;54.64
32456;BME280;18912;43.270;27.942;2023-03-03T05:17:35;98290.22;;;11.73;54.68
32456;BME280;18912;43.270;27.942;2023-03-03T05:20:01;98294.97;;;11.84;54.60
32456;BME280;18912;43.270;27.942;2023-03-03T05:22:27;98296.22;;;11.88;54.57
32456;BME280;18912;43.270;27.942;2023-03-03T05:24:53;98299.59;;;11.77;54.73
32456;BME280;18912;43.270;27.942;2023-03-03T05:27:18;98284.13;;;11.65;54.98
32456;BME280;18912;43.270;27.942;2023-03-03T05:29:44;98294.16;;;11.77;54.78
32456;BME280;18912;43.270;27.942;2023-03-03T05:32:10;98300.19;;;11.60;55.10
32456;BME280;18912;43.270;27.942;2023-03-03T05:34:35;98300.81;;;11.75;54.79
32456;BME280;18912;43.270;27.942;2023-03-03T05:37:01;98301.66;;;11.88;54.31
32456;BME280;18912;43.270;27.942;2023-03-03T05:39:28;98307.47;;;11.92;54.36
32456;BME280;18912;43.270;27.942;2023-03-03T05:41:54;98301.63;;;11.95;54.23
32456;BME280;18912;43.270;27.942;2023-03-03T05:44:21;98302.88;;;12.05;54.32
32456;BME280;18912;43.270;27.942;2023-03-03T05:46:46;98309.53;;;12.09;54.05
32456;BME280;18912;43.270;27.942;2023-03-03T05:49:12;98302.44;;;12.15;54.01
32456;BME280;18912;43.270;27.942;2023-03-03T05:51:37;98298.69;;;12.09;54.08
32456;BME280;18912;43.270;27.942;2023-03-03T05:54:02;98304.47;;;12.19;53.97
32456;BME280;18912;43.270;27.942;2023-03-03T05:56:28;98313.25;;;12.15;53.98
32456;BME280;18912;43.270;27.942;2023-03-03T05:58:53;98311.78;;;12.19;54.09
32456;BME280;18912;43.270;27.942;2023-03-03T06:01:20;98313.66;;;12.18;54.00
32456;BME280;18912;43.270;27.942;2023-03-03T06:03:46;98304.78;;;11.79;54.77
32456;BME280;18912;43.270;27.942;2023-03-03T06:06:11;98298.31;;;11.80;54.64
32456;BME280;18912;43.270;27.942;2023-03-03T06:08:38;98297.88;;;11.96;54.36
32456;BME280;18912;43.270;27.942;2023-03-03T06:11:04;98294.47;;;12.20;54.10
32456;BME280;18912;43.270;27.942;2023-03-03T06:13:29;98297.16;;;12.33;53.53
32456;BME280;18912;43.270;27.942;2023-03-03T06:15:54;98304.03;;;12.29;53.62
32456;BME280;18912;43.270;27.942;2023-03-03T06:18:20;98304.88;;;12.36;53.44
32456;BME280;18912;43.270;27.942;2023-03-03T06:20:50;98303.56;;;12.52;52.91
32456;BME280;18912;43.270;27.942;2023-03-03T06:23:16;98303.06;;;12.61;52.72
32456;BME280;18912;43.270;27.942;2023-03-03T06:25:42;98314.53;;;12.63;52.54
32456;BME280;18912;43.270;27.942;2023-03-03T06:28:08;98312.66;;;12.70;52.41
32456;BME280;18912;43.270;27.942;2023-03-03T06:30:34;98305.19;;;12.59;52.28
32456;BME280;18912;43.270;27.942;2023-03-03T06:32:59;98316.78;;;12.73;52.13
32456;BME280;18912;43.270;27.942;2023-03-03T06:35:25;98304.50;;;12.70;52.21
32456;BME280;18912;43.270;27.942;2023-03-03T06:37:50;98312.19;;;12.80;52.11
32456;BME280;18912;43.270;27.942;2023-03-03T06:40:16;98319.25;;;12.81;52.01
32456;BME280;18912;43.270;27.942;2023-03-03T06:42:42;98306.94;;;12.85;52.18
32456;BME280;18912;43.270;27.942;2023-03-03T06:45:08;98312.59;;;12.83;52.29
32456;BME280;18912;43.270;27.942;2023-03-03T06:47:33;98312.13;;;12.93;52.18
32456;BME280;18912;43.270;27.942;2023-03-03T06:49:59;98313.50;;;13.02;51.82
32456;BME280;18912;43.270;27.942;2023-03-03T06:52:25;98325.91;;;12.91;51.72
32456;BME280;18912;43.270;27.942;2023-03-03T06:54:56;98317.47;;;12.99;51.43
32456;BME280;18912;43.270;27.942;2023-03-03T06:57:26;98314.22;;;12.91;51.15
32456;BME280;18912;43.270;27.942;2023-03-03T06:59:54;98322.66;;;12.76;51.08
32456;BME280;18912;43.270;27.942;2023-03-03T07:02:21;98313.34;;;12.97;51.07
32456;BME280;18912;43.270;27.942;2023-03-03T07:04:48;98320.19;;;12.99;50.76
32456;BME280;18912;43.270;27.942;2023-03-03T07:09:39;98309.78;;;12.96;50.96
32456;BME280;18912;43.270;27.942;2023-03-03T07:12:09;98303.66;;;13.14;50.74
32456;BME280;18912;43.270;27.942;2023-03-03T07:14:50;98310.34;;;13.11;50.96
32456;BME280;18912;43.270;27.942;2023-03-03T07:17:23;98312.97;;;13.25;50.09
32456;BME280;18912;43.270;27.942;2023-03-03T07:19:49;98315.00;;;13.36;49.96
32456;BME280;18912;43.270;27.942;2023-03-03T07:22:20;98313.44;;;13.22;50.13
32456;BME280;18912;43.270;27.942;2023-03-03T07:24:51;98306.06;;;13.29;50.05
32456;BME280;18912;43.270;27.942;2023-03-03T07:29:46;98308.06;;;13.40;49.78
32456;BME280;18912;43.270;27.942;2023-03-03T07:32:37;98306.81;;;13.42;49.60
32456;BME280;18912;43.270;27.942;2023-03-03T07:35:31;98290.06;;;13.45;49.71
32456;BME280;18912;43.270;27.942;2023-03-03T07:38:00;98299.03;;;13.46;49.75
32456;BME280;18912;43.270;27.942;2023-03-03T07:42:58;98294.56;;;13.58;49.12
32456;BME280;18912;43.270;27.942;2023-03-03T07:45:30;98299.69;;;13.66;49.41
32456;BME280;18912;43.270;27.942;2023-03-03T07:48:24;98289.13;;;13.58;49.51
32456;BME280;18912;43.270;27.942;2023-03-03T07:50:51;98286.91;;;13.73;49.49
32456;BME280;18912;43.270;27.942;2023-03-03T07:53:28;98284.50;;;13.83;48.98
32456;BME280;18912;43.270;27.942;2023-03-03T07:55:59;98286.78;;;13.86;48.97
32456;BME280;18912;43.270;27.942;2023-03-03T07:58:45;98286.03;;;13.97;48.55
32456;BME280;18912;43.270;27.942;2023-03-03T08:01:37;98279.94;;;14.01;48.80
32456;BME280;18912;43.270;27.942;2023-03-03T08:06:55;98275.63;;;14.12;48.52
32456;BME280;18912;43.270;27.942;2023-03-03T08:09:29;98279.09;;;14.19;47.95
32456;BME280;18912;43.270;27.942;2023-03-03T08:14:34;98277.78;;;14.46;47.61
32456;BME280;18912;43.270;27.942;2023-03-03T08:17:00;98281.72;;;14.50;47.71
32456;BME280;18912;43.270;27.942;2023-03-03T08:19:28;98278.53;;;14.35;47.09
32456;BME280;18912;43.270;27.942;2023-03-03T08:22:02;98281.75;;;14.26;47.51
32456;BME280;18912;43.270;27.942;2023-03-03T08:24:33;98271.72;;;14.62;46.95
32456;BME280;18912;43.270;27.942;2023-03-03T08:26:59;98267.69;;;14.83;46.58
32456;BME280;18912;43.270;27.942;2023-03-03T08:29:24;98274.22;;;14.93;46.65
32456;BME280;18912;43.270;27.942;2023-03-03T08:31:49;98267.38;;;15.02;46.57
32456;BME280;18912;43.270;27.942;2023-03-03T08:34:15;98273.38;;;15.23;46.51
32456;BME280;18912;43.270;27.942;2023-03-03T08:36:40;98267.53;;;15.49;45.59
32456;BME280;18912;43.270;27.942;2023-03-03T08:39:06;98264.72;;;15.67;45.62
32456;BME280;18912;43.270;27.942;2023-03-03T08:41:31;98271.34;;;15.71;45.15
32456;BME280;18912;43.270;27.942;2023-03-03T08:43:57;98273.84;;;15.72;44.18
32456;BME280;18912;43.270;27.942;2023-03-03T08:46:22;98269.44;;;15.60;43.54
32456;BME280;18912;43.270;27.942;2023-03-03T08:48:48;98261.38;;;15.42;43.49
32456;BME280;18912;43.270;27.942;2023-03-03T08:51:13;98279.28;;;14.90;45.27
32456;BME280;18912;43.270;27.942;2023-03-03T08:53:39;98273.91;;;15.43;44.39
32456;BME280;18912;43.270;27.942;2023-03-03T08:56:05;98279.66;;;15.99;43.65
32456;BME280;18912;43.270;27.942;2023-03-03T08:58:31;98278.69;;;16.05;43.15
32456;BME280;18912;43.270;27.942;2023-03-03T09:00:56;98279.34;;;16.58;42.08
32456;BME280;18912;43.270;27.942;2023-03-03T09:03:23;98287.31;;;16.60;42.00
32456;BME280;18912;43.270;27.942;2023-03-03T09:05:49;98281.13;;;16.93;41.91
32456;BME280;18912;43.270;27.942;2023-03-03T09:08:14;98281.00;;;16.71;41.54
32456;BME280;18912;43.270;27.942;2023-03-03T09:10:39;98282.16;;;16.75;41.67
32456;BME280;18912;43.270;27.942;2023-03-03T09:13:17;98274.31;;;17.07;40.76
32456;BME280;18912;43.270;27.942;2023-03-03T09:15:44;98273.31;;;17.41;40.06
32456;BME280;18912;43.270;27.942;2023-03-03T09:18:16;98264.69;;;17.32;39.91
32456;BME280;18912;43.270;27.942;2023-03-03T09:20:47;98269.97;;;18.22;38.87
32456;BME280;18912;43.270;27.942;2023-03-03T09:25:49;98265.91;;;17.53;39.02
32456;BME280;18912;43.270;27.942;2023-03-03T09:28:26;98266.66;;;16.64;40.02
32456;BME280;18912;43.270;27.942;2023-03-03T09:30:56;98258.44;;;15.78;41.27
32456;BME280;18912;43.270;27.942;2023-03-03T09:33:23;98256.25;;;16.49;40.47
32456;BME280;18912;43.270;27.942;2023-03-03T09:38:43;98249.66;;;16.11;41.63
32456;BME280;18912;43.270;27.942;2023-03-03T09:57:21;98222.22;;;17.41;39.82
32456;BME280;18912;43.270;27.942;2023-03-03T10:07:54;98209.34;;;17.92;37.64
32456;BME280;18912;43.270;27.942;2023-03-03T10:18:36;98190.94;;;17.65;39.57
32456;BME280;18912;43.270;27.942;2023-03-03T10:27:11;98182.94;;;17.81;39.11
32456;BME280;18912;43.270;27.942;2023-03-03T10:41:18;98171.34;;;15.83;44.24
32456;BME280;18912;43.270;27.942;2023-03-03T10:46:18;98163.38;;;16.05;43.05
32456;BME280;18912;43.270;27.942;2023-03-03T11:15:48;98135.94;;;16.11;44.32
32456;BME280;18912;43.270;27.942;2023-03-03T11:18:12;98128.00;;;16.49;43.02
32456;BME280;18912;43.270;27.942;2023-03-03T11:31:56;98093.66;;;16.81;43.33
32456;BME280;18912;43.270;27.942;2023-03-03T11:37:14;98096.88;;;16.95;43.23
32456;BME280;18912;43.270;27.942;2023-03-03T11:39:42;98100.63;;;17.06;42.59
32456;BME280;18912;43.270;27.942;2023-03-03T11:45:02;98091.59;;;16.44;43.38
32456;BME280;18912;43.270;27.942;2023-03-03T11:47:51;98095.72;;;16.74;43.77
32456;BME280;18912;43.270;27.942;2023-03-03T11:50:25;98087.00;;;17.27;42.49
32456;BME280;18912;43.270;27.942;2023-03-03T11:56:13;98094.56;;;17.75;40.50
32456;BME280;18912;43.270;27.942;2023-03-03T11:58:55;98076.22;;;17.54;41.38
32456;BME280;18912;43.270;27.942;2023-03-03T12:01:31;98074.09;;;16.56;43.93
32456;BME280;18912;43.270;27.942;2023-03-03T12:04:05;98076.31;;;17.42;42.37
32456;BME280;18912;43.270;27.942;2023-03-03T12:06:49;98077.69;;;18.05;40.69
32456;BME280;18912;43.270;27.942;2023-03-03T12:12:28;98090.88;;;18.08;41.17
32456;BME280;18912;43.270;27.942;2023-03-03T12:15:15;98084.88;;;17.29;41.76
32456;BME280;18912;43.270;27.942;2023-03-03T12:17:53;98073.13;;;16.62;43.14
32456;BME280;18912;43.270;27.942;2023-03-03T12:36:43;98074.34;;;14.89;46.63
32456;BME280;18912;43.270;27.942;2023-03-03T12:42:19;98070.19;;;14.75;47.21
32456;BME280;18912;43.270;27.942;2023-03-03T12:55:52;98080.63;;;15.25;46.53
32456;BME280;18912;43.270;27.942;2023-03-03T13:05:08;98075.31;;;14.42;48.41
32456;BME280;18912;43.270;27.942;2023-03-03T13:10:03;98069.84;;;13.83;48.70
32456;BME280;18912;43.270;27.942;2023-03-03T13:20:29;98071.75;;;14.12;48.69
32456;BME280;18912;43.270;27.942;2023-03-03T13:23:09;98065.72;;;14.10;48.17
32456;BME280;18912;43.270;27.942;2023-03-03T13:25:48;98067.47;;;13.75;47.78
32456;BME280;18912;43.270;27.942;2023-03-03T13:28:22;98066.00;;;13.43;48.43
32456;BME280;18912;43.270;27.942;2023-03-03T13:30:55;98068.97;;;13.53;48.17
32456;BME280;18912;43.270;27.942;2023-03-03T13:33:27;98062.50;;;13.54;49.44
32456;BME280;18912;43.270;27.942;2023-03-03T13:36:00;98058.81;;;13.30;49.64
32456;BME280;18912;43.270;27.942;2023-03-03T13:38:32;98064.59;;;13.34;50.05
32456;BME280;18912;43.270;27.942;2023-03-03T13:43:38;98065.81;;;13.38;49.81
32456;BME280;18912;43.270;27.942;2023-03-03T13:46:15;98059.09;;;13.22;50.88
32456;BME280;18912;43.270;27.942;2023-03-03T13:54:46;98054.13;;;12.94;52.21
32456;BME280;18912;43.270;27.942;2023-03-03T14:05:15;98061.72;;;12.61;53.52
32456;BME280;18912;43.270;27.942;2023-03-03T14:13:08;98062.44;;;12.50;53.54
32456;BME280;18912;43.270;27.942;2023-03-03T14:15:50;98058.69;;;12.51;53.38
32456;BME280;18912;43.270;27.942;2023-03-03T14:18:26;98054.25;;;12.32;53.95
32456;BME280;18912;43.270;27.942;2023-03-03T14:20:59;98049.88;;;12.31;54.36
32456;BME280;18912;43.270;27.942;2023-03-03T14:26:18;98036.56;;;12.54;53.73
32456;BME280;18912;43.270;27.942;2023-03-03T14:28:48;98052.09;;;12.90;53.09
32456;BME280;18912;43.270;27.942;2023-03-03T14:31:27;98054.22;;;13.13;52.74
32456;BME280;18912;43.270;27.942;2023-03-03T14:36:39;98049.16;;;12.91;52.46
32456;BME280;18912;43.270;27.942;2023-03-03T14:39:38;98052.59;;;12.80;52.28
32456;BME280;18912;43.270;27.942;2023-03-03T14:42:39;98049.13;;;12.49;53.59
32456;BME280;18912;43.270;27.942;2023-03-03T14:45:37;98051.78;;;12.55;54.13
32456;BME280;18912;43.270;27.942;2023-03-03T14:48:16;98051.19;;;12.78;53.89
32456;BME280;18912;43.270;27.942;2023-03-03T14:50:49;98055.97;;;12.27;55.06
32456;BME280;18912;43.270;27.942;2023-03-03T14:55:45;98065.88;;;12.64;54.26
32456;BME280;18912;43.270;27.942;2023-03-03T14:58:31;98060.41;;;11.83;56.34
32456;BME280;18912;43.270;27.942;2023-03-03T15:01:14;98059.22;;;11.60;56.63
32456;BME280;18912;43.270;27.942;2023-03-03T15:03:49;98061.97;;;11.97;55.88
32456;BME280;18912;43.270;27.942;2023-03-03T15:06:39;98059.69;;;12.32;54.83
32456;BME280;18912;43.270;27.942;2023-03-03T15:09:37;98052.06;;;12.16;56.52
32456;BME280;18912;43.270;27.942;2023-03-03T15:12:18;98060.13;;;11.91;56.99
32456;BME280;18912;43.270;27.942;2023-03-03T15:14:47;98060.09;;;12.29;56.55
32456;BME280;18912;43.270;27.942;2023-03-03T15:17:23;98057.78;;;12.08;57.33
32456;BME280;18912;43.270;27.942;2023-03-03T15:19:53;98065.50;;;12.36;56.80
32456;BME280;18912;43.270;27.942;2023-03-03T15:36:21;98061.44;;;11.25;60.65
32456;BME280;18912;43.270;27.942;2023-03-03T15:41:38;98059.06;;;11.42;60.16
32456;BME280;18912;43.270;27.942;2023-03-03T15:44:21;98068.41;;;10.88;61.73
32456;BME280;18912;43.270;27.942;2023-03-03T15:55:21;98067.31;;;11.02;62.47
32456;BME280;18912;43.270;27.942;2023-03-03T16:03:48;98073.59;;;10.70;64.57
32456;BME280;18912;43.270;27.942;2023-03-03T16:06:46;98074.84;;;10.87;65.07
32456;BME280;18912;43.270;27.942;2023-03-03T16:17:41;98083.34;;;10.97;64.71
32456;BME280;18912;43.270;27.942;2023-03-03T16:31:12;98110.19;;;10.53;67.42
32456;BME280;18912;43.270;27.942;2023-03-03T16:36:28;98104.16;;;10.51;69.45
32456;BME280;18912;43.270;27.942;2023-03-03T16:39:09;98101.06;;;10.80;68.79
32456;BME280;18912;43.270;27.942;2023-03-03T16:41:59;98103.13;;;10.91;69.03
32456;BME280;18912;43.270;27.942;2023-03-03T16:47:14;98110.00;;;10.61;69.48
32456;BME280;18912;43.270;27.942;2023-03-03T16:49:51;98110.41;;;10.78;68.81
32456;BME280;18912;43.270;27.942;2023-03-03T16:52:35;98114.97;;;11.03;69.06
32456;BME280;18912;43.270;27.942;2023-03-03T16:55:12;98115.06;;;11.54;66.57
32456;BME280;18912;43.270;27.942;2023-03-03T16:58:01;98114.75;;;10.98;68.94
32456;BME280;18912;43.270;27.942;2023-03-03T17:00:37;98116.56;;;11.37;68.00
32456;BME280;18912;43.270;27.942;2023-03-03T17:05:48;98128.78;;;11.59;66.82
32456;BME280;18912;43.270;27.942;2023-03-03T17:11:24;98126.94;;;12.10;65.37
32456;BME280;18912;43.270;27.942;2023-03-03T17:14:08;98126.47;;;11.63;66.63
32456;BME280;18912;43.270;27.942;2023-03-03T17:16:50;98124.72;;;11.24;68.30
32456;BME280;18912;43.270;27.942;2023-03-03T17:30:44;98141.69;;;11.77;66.50
32456;BME280;18912;43.270;27.942;2023-03-03T17:35:47;98136.44;;;12.26;64.16
32456;BME280;18912;43.270;27.942;2023-03-03T17:44:13;98137.06;;;12.59;62.83
32456;BME280;18912;43.270;27.942;2023-03-03T17:54:39;98141.44;;;12.85;61.03
32456;BME280;18912;43.270;27.942;2023-03-03T18:08:31;98143.53;;;11.83;63.99
32456;BME280;18912;43.270;27.942;2023-03-03T18:11:07;98153.53;;;11.76;64.13
32456;BME280;18912;43.270;27.942;2023-03-03T18:20:07;98151.25;;;11.73;64.75